createdAt,value
2022-07-26T00:02:25.175Z,12.65
2022-07-26T00:04:53.110Z,13.80
2022-07-26T00:07:20.367Z,15.90
2022-07-26T00:09:48.543Z,14.75
2022-07-26T00:12:16.212Z,13.10
2022-07-26T00:14:44.159Z,11.05
2022-07-26T00:17:11.510Z,12.05
2022-07-26T00:19:38.970Z,18.13
2022-07-26T00:22:25.043Z,10.13
2022-07-26T00:24:52.616Z,15.02
2022-07-26T00:27:19.848Z,9.38
2022-07-26T00:29:47.364Z,12.75
2022-07-26T00:32:15.019Z,14.02
2022-07-26T00:34:42.492Z,9.82
2022-07-26T00:37:09.774Z,9.70
2022-07-26T00:39:37.427Z,11.20
2022-07-26T00:42:04.606Z,10.30
2022-07-26T00:44:45.602Z,9.43
2022-07-26T00:47:13.576Z,9.15
2022-07-26T00:49:41.834Z,10.77
2022-07-26T00:52:10.060Z,11.20
2022-07-26T00:54:38.851Z,13.35
2022-07-26T00:57:06.809Z,10.93
2022-07-26T00:59:34.049Z,11.13
2022-07-26T01:02:04.440Z,8.15
2022-07-26T01:04:31.909Z,12.38
2022-07-26T01:06:59.661Z,10.30
2022-07-26T01:09:27.273Z,11.10
2022-07-26T01:11:54.531Z,10.65
2022-07-26T01:14:24.631Z,14.20
2022-07-26T01:16:52.579Z,10.95
2022-07-26T01:19:20.384Z,9.70
2022-07-26T01:21:48.064Z,20.27
2022-07-26T01:24:15.550Z,10.88
2022-07-26T01:26:42.729Z,12.40
2022-07-26T01:29:10.294Z,10.05
2022-07-26T01:31:37.819Z,12.23
2022-07-26T01:34:05.327Z,11.95
2022-07-26T01:36:33.214Z,12.77
2022-07-26T01:39:00.639Z,9.27
2022-07-26T01:41:37.880Z,11.65
2022-07-26T01:44:08.030Z,10.15
2022-07-26T01:46:36.313Z,14.38
2022-07-26T01:49:04.695Z,10.43
2022-07-26T01:51:32.321Z,11.55
2022-07-26T01:53:59.541Z,15.43
2022-07-26T01:56:26.811Z,11.88
2022-07-26T01:58:54.340Z,12.85
2022-07-26T02:01:38.163Z,13.05
2022-07-26T02:04:09.368Z,10.77
2022-07-26T02:06:37.375Z,14.23
2022-07-26T02:09:07.525Z,10.02
2022-07-26T02:11:37.153Z,12.47
2022-07-26T02:14:04.943Z,12.48
2022-07-26T02:16:32.427Z,11.80
2022-07-26T02:18:59.844Z,11.73
2022-07-26T02:21:27.056Z,11.05
2022-07-26T02:23:54.286Z,13.98
2022-07-26T02:26:21.652Z,13.40
2022-07-26T02:28:48.929Z,10.07
2022-07-26T02:31:16.208Z,11.40
2022-07-26T02:33:43.709Z,13.15
2022-07-26T02:36:10.710Z,10.30
2022-07-26T02:38:37.911Z,15.20
2022-07-26T02:41:06.368Z,14.13
2022-07-26T02:43:33.729Z,12.10
2022-07-26T02:46:01.564Z,14.38
2022-07-26T02:48:33.095Z,11.77
2022-07-26T02:51:00.307Z,13.15
2022-07-26T02:53:28.025Z,15.93
2022-07-26T02:55:55.433Z,11.60
2022-07-26T02:58:24.978Z,12.07
2022-07-26T03:00:52.050Z,15.02
2022-07-26T03:03:19.549Z,14.52
2022-07-26T03:05:46.665Z,10.50
2022-07-26T03:08:13.822Z,10.90
2022-07-26T03:10:41.170Z,15.75
2022-07-26T03:13:08.435Z,12.52
2022-07-26T03:15:35.650Z,14.10
2022-07-26T03:18:03.210Z,14.27
2022-07-26T03:20:30.502Z,12.68
2022-07-26T03:22:57.661Z,10.40
2022-07-26T03:25:24.982Z,11.88
2022-07-26T03:27:57.016Z,12.02
2022-07-26T03:30:26.567Z,23.65
2022-07-26T03:32:54.444Z,15.35
2022-07-26T03:35:21.822Z,14.32
2022-07-26T03:37:49.196Z,14.52
2022-07-26T03:40:16.692Z,11.95
2022-07-26T03:42:45.328Z,12.45
2022-07-26T03:45:14.070Z,14.90
2022-07-26T03:47:41.916Z,12.70
2022-07-26T03:50:11.060Z,14.55
2022-07-26T03:52:38.602Z,12.57
2022-07-26T03:55:25.718Z,17.33
2022-07-26T03:57:53.329Z,16.58
2022-07-26T04:00:20.487Z,14.38
2022-07-26T04:02:47.840Z,11.85
2022-07-26T04:05:15.368Z,13.50
2022-07-26T04:07:43.862Z,16.35
2022-07-26T04:10:21.615Z,16.25
2022-07-26T04:12:49.926Z,15.30
2022-07-26T04:15:19.114Z,12.27
2022-07-26T04:17:48.525Z,16.38
2022-07-26T04:20:16.045Z,13.63
2022-07-26T04:22:43.449Z,11.13
2022-07-26T04:25:11.303Z,12.43
2022-07-26T04:27:38.550Z,13.00
2022-07-26T04:30:12.397Z,14.18
2022-07-26T04:32:42.715Z,14.68
2022-07-26T04:35:10.012Z,13.85
2022-07-26T04:37:41.427Z,15.45
2022-07-26T04:40:10.330Z,12.70
2022-07-26T04:42:40.127Z,12.80
2022-07-26T04:45:08.472Z,14.95
2022-07-26T04:47:36.915Z,10.07
2022-07-26T04:50:05.136Z,11.15
2022-07-26T04:52:32.581Z,11.98
2022-07-26T04:55:01.352Z,11.25
2022-07-26T04:57:28.605Z,11.15
2022-07-26T05:00:16.725Z,10.75
2022-07-26T05:02:43.323Z,8.98
2022-07-26T05:05:10.619Z,11.45
2022-07-26T05:07:46.111Z,14.05
2022-07-26T05:10:14.685Z,13.52
2022-07-26T05:12:41.850Z,12.23
2022-07-26T05:15:14.122Z,9.75
2022-07-26T05:17:43.087Z,11.90
2022-07-26T05:20:12.532Z,12.13
2022-07-26T05:22:39.955Z,10.82
2022-07-26T05:25:07.929Z,9.80
2022-07-26T05:27:35.374Z,9.70
2022-07-26T05:30:02.473Z,13.77
2022-07-26T05:32:30.089Z,10.70
2022-07-26T05:34:57.499Z,14.50
2022-07-26T05:37:24.771Z,10.20
2022-07-26T05:39:52.145Z,10.07
2022-07-26T05:42:19.467Z,8.63
2022-07-26T05:44:46.594Z,9.88
2022-07-26T05:47:14.362Z,8.68
2022-07-26T05:49:41.589Z,9.88
2022-07-26T05:52:09.166Z,11.27
2022-07-26T05:54:36.562Z,8.50
2022-07-26T05:57:04.734Z,13.63
2022-07-26T05:59:33.034Z,9.55
2022-07-26T06:02:00.546Z,6.60
2022-07-26T06:16:18.705Z,9.85
2022-07-26T06:18:46.131Z,11.80
2022-07-26T06:21:13.158Z,8.93
2022-07-26T06:23:40.867Z,10.75
2022-07-26T06:26:08.327Z,14.25
2022-07-26T06:28:36.812Z,13.10
2022-07-26T06:31:03.871Z,12.23
2022-07-26T06:33:31.353Z,13.40
2022-07-26T06:35:58.754Z,12.57
2022-07-26T06:38:25.922Z,15.10
2022-07-26T06:40:53.722Z,8.90
2022-07-26T06:43:21.205Z,6.40
2022-07-26T06:45:49.484Z,11.38
2022-07-26T06:48:17.085Z,8.25
2022-07-26T06:50:44.924Z,10.75
2022-07-26T06:53:12.237Z,9.30
2022-07-26T06:55:39.537Z,7.82
2022-07-26T06:58:06.872Z,8.43
2022-07-26T07:00:34.238Z,10.50
2022-07-26T07:03:01.694Z,8.15
2022-07-26T07:05:31.202Z,6.20
2022-07-26T07:07:58.734Z,10.40
2022-07-26T07:10:26.200Z,19.38
2022-07-26T07:12:53.247Z,8.48
2022-07-26T07:15:21.059Z,6.63
2022-07-26T07:17:48.885Z,7.80
2022-07-26T07:20:16.083Z,7.32
2022-07-26T07:22:43.306Z,8.07
2022-07-26T07:25:27.591Z,14.63
2022-07-26T07:27:59.370Z,8.55
2022-07-26T07:30:27.901Z,7.53
2022-07-26T07:32:56.559Z,8.52
2022-07-26T07:35:24.337Z,9.32
2022-07-26T07:37:59.270Z,6.25
2022-07-26T07:40:26.481Z,11.13
2022-07-26T07:42:53.688Z,10.43
2022-07-26T07:45:21.064Z,13.25
2022-07-26T07:47:48.748Z,7.43
2022-07-26T07:50:15.917Z,7.30
2022-07-26T07:52:45.777Z,11.18
2022-07-26T07:55:40.698Z,10.80
2022-07-26T07:58:00.442Z,7.88
2022-07-26T08:00:27.812Z,8.10
2022-07-26T08:02:55.728Z,8.80
2022-07-26T08:05:23.276Z,8.38
2022-07-26T08:07:50.585Z,6.05
2022-07-26T08:10:20.426Z,7.40
2022-07-26T08:12:51.177Z,9.73
2022-07-26T08:15:19.678Z,9.02
2022-07-26T08:17:54.690Z,7.80
2022-07-26T08:20:23.697Z,10.48
2022-07-26T08:22:53.225Z,24.98
2022-07-26T08:25:20.897Z,16.35
2022-07-26T08:28:03.113Z,11.25
2022-07-26T08:30:32.219Z,13.00
2022-07-26T08:32:59.666Z,6.88
2022-07-26T08:35:27.009Z,9.27
2022-07-26T08:37:54.457Z,9.90
2022-07-26T08:40:21.821Z,9.57
2022-07-26T08:42:58.462Z,8.43
2022-07-26T08:45:27.788Z,11.68
2022-07-26T08:48:16.692Z,12.82
2022-07-26T08:50:43.116Z,12.52
2022-07-26T08:53:12.092Z,9.13
2022-07-26T08:58:26.889Z,13.90
2022-07-26T09:01:08.967Z,11.18
2022-07-26T09:03:40.168Z,6.03
2022-07-26T09:06:16.086Z,14.23
2022-07-26T09:08:45.434Z,12.82
2022-07-26T09:11:33.264Z,18.20
2022-07-26T09:14:03.247Z,11.48
2022-07-26T09:16:31.050Z,8.35
2022-07-26T09:19:19.585Z,11.32
2022-07-26T09:21:47.176Z,7.07
2022-07-26T09:24:30.443Z,10.63
2022-07-26T09:27:00.121Z,23.23
2022-07-26T09:29:28.667Z,6.25
2022-07-26T09:32:20.036Z,8.07
2022-07-26T09:34:59.110Z,10.50
2022-07-26T09:37:37.388Z,6.40
2022-07-26T09:40:08.083Z,5.38
2022-07-26T09:42:35.665Z,6.05
2022-07-26T09:45:04.736Z,7.03
2022-07-26T09:47:37.758Z,7.82
2022-07-26T09:50:12.235Z,7.35
2022-07-26T09:52:39.770Z,9.05
2022-07-26T09:55:08.572Z,10.27
2022-07-26T09:57:35.852Z,9.90
2022-07-26T10:00:05.926Z,15.18
2022-07-26T10:02:35.475Z,7.60
2022-07-26T10:05:02.748Z,7.97
2022-07-26T10:07:30.342Z,7.07
2022-07-26T10:10:04.613Z,7.32
2022-07-26T10:12:33.335Z,10.10
2022-07-26T10:15:00.684Z,8.95
2022-07-26T10:17:31.447Z,7.07
2022-07-26T10:20:04.215Z,9.07
2022-07-26T10:22:52.201Z,10.57
2022-07-26T10:27:55.371Z,7.10
2022-07-26T10:30:28.845Z,7.07
2022-07-26T10:33:03.503Z,9.20
2022-07-26T10:35:36.427Z,12.93
2022-07-26T10:40:32.491Z,12.48
2022-07-26T10:46:18.605Z,8.27
2022-07-26T10:49:00.139Z,12.68
2022-07-26T10:51:29.879Z,17.20
2022-07-26T10:54:02.194Z,11.70
2022-07-26T10:56:33.440Z,12.63
2022-07-26T10:59:02.919Z,8.05
2022-07-26T11:01:45.470Z,14.15
2022-07-26T11:04:19.817Z,11.75
2022-07-26T11:06:47.554Z,12.25
2022-07-26T11:09:15.061Z,12.65
2022-07-26T11:11:46.657Z,7.45
2022-07-26T11:14:17.077Z,9.40
2022-07-26T11:16:50.102Z,7.65
2022-07-26T11:21:49.154Z,10.48
2022-07-26T11:24:16.399Z,8.95
2022-07-26T11:26:45.095Z,10.75
2022-07-26T11:29:16.776Z,14.85
2022-07-26T11:31:50.330Z,7.95
2022-07-26T11:34:25.416Z,8.05
2022-07-26T11:36:55.542Z,12.80
2022-07-26T11:39:27.360Z,13.77
2022-07-26T11:42:08.596Z,8.15
2022-07-26T11:44:36.315Z,8.52
2022-07-26T11:47:25.699Z,13.15
2022-07-26T11:52:41.447Z,9.68
2022-07-26T11:55:09.244Z,15.35
2022-07-26T11:57:36.584Z,14.23
2022-07-26T12:00:04.934Z,11.25
2022-07-26T12:02:55.781Z,12.80
2022-07-26T12:05:23.896Z,12.60
2022-07-26T12:08:04.655Z,13.65
2022-07-26T12:10:32.396Z,17.92
2022-07-26T12:13:12.596Z,26.40
2022-07-26T12:15:53.102Z,11.38
2022-07-26T12:18:31.097Z,11.20
2022-07-26T12:21:09.171Z,14.48
2022-07-26T12:23:49.719Z,12.13
2022-07-26T12:26:43.393Z,17.95
2022-07-26T12:29:29.300Z,14.32
2022-07-26T12:32:15.413Z,12.38
2022-07-26T12:34:56.659Z,18.90
2022-07-26T12:37:33.731Z,17.02
2022-07-26T12:40:12.844Z,13.02
2022-07-26T12:43:00.265Z,20.27
2022-07-26T12:45:29.195Z,18.75
2022-07-26T12:47:58.407Z,16.98
2022-07-26T12:50:28.279Z,18.38
2022-07-26T12:53:03.402Z,20.10
2022-07-26T12:55:31.729Z,19.67
2022-07-26T12:57:59.952Z,23.05
2022-07-26T13:00:29.616Z,23.25
2022-07-26T13:02:57.954Z,22.50
2022-07-26T13:05:25.059Z,21.73
2022-07-26T13:07:52.651Z,19.98
2022-07-26T13:10:33.014Z,23.15
2022-07-26T13:13:01.213Z,24.13
2022-07-26T13:15:37.070Z,23.88
2022-07-26T13:18:08.835Z,25.77
2022-07-26T13:20:38.123Z,23.38
2022-07-26T13:23:06.255Z,23.30
2022-07-26T13:25:38.337Z,21.30
2022-07-26T13:28:08.649Z,27.15
2022-07-26T13:30:41.165Z,22.58
2022-07-26T13:33:09.299Z,24.05
2022-07-26T13:35:39.314Z,19.83
2022-07-26T13:38:09.163Z,24.65
2022-07-26T13:40:36.905Z,24.77
2022-07-26T13:43:04.796Z,19.60
2022-07-26T13:45:31.929Z,22.75
2022-07-26T13:47:59.908Z,25.85
2022-07-26T13:50:28.116Z,26.65
2022-07-26T13:52:56.465Z,25.42
2022-07-26T13:55:25.593Z,20.98
2022-07-26T13:57:56.829Z,19.02
2022-07-26T14:00:29.469Z,18.98
2022-07-26T14:03:00.422Z,22.48
2022-07-26T14:05:28.147Z,20.58
2022-07-26T14:07:55.789Z,20.30
2022-07-26T14:10:23.832Z,19.15
2022-07-26T14:12:52.088Z,15.73
2022-07-26T14:15:22.569Z,15.13
2022-07-26T14:17:51.708Z,19.42
2022-07-26T14:20:19.354Z,16.95
2022-07-26T14:22:47.357Z,12.82
2022-07-26T14:25:14.888Z,14.50
2022-07-26T14:27:42.234Z,15.05
2022-07-26T14:30:09.895Z,13.57
2022-07-26T14:32:37.014Z,11.05
2022-07-26T14:35:05.173Z,16.35
2022-07-26T14:37:43.157Z,10.88
2022-07-26T14:40:15.010Z,12.45
2022-07-26T14:42:42.407Z,12.63
2022-07-26T14:45:10.689Z,10.55
2022-07-26T14:47:38.571Z,8.02
2022-07-26T14:50:08.048Z,13.38
2022-07-26T14:52:43.862Z,9.80
2022-07-26T14:55:12.514Z,14.45
2022-07-26T14:57:40.500Z,11.75
2022-07-26T15:00:10.312Z,9.45
2022-07-26T15:02:45.259Z,11.68
2022-07-26T15:05:14.108Z,10.25
2022-07-26T15:07:42.082Z,11.68
2022-07-26T15:10:11.713Z,10.88
2022-07-26T15:12:39.256Z,11.68
2022-07-26T15:15:07.964Z,14.15
2022-07-26T15:17:35.590Z,12.10
2022-07-26T15:20:04.580Z,7.88
2022-07-26T15:22:32.034Z,9.80
2022-07-26T15:24:59.250Z,6.72
2022-07-26T15:27:26.417Z,11.80
2022-07-26T15:29:56.194Z,9.23
2022-07-26T15:32:25.663Z,8.10
2022-07-26T15:34:53.902Z,6.53
2022-07-26T15:37:21.474Z,5.90
2022-07-26T15:39:48.550Z,4.50
2022-07-26T15:42:19.158Z,7.10
2022-07-26T15:44:48.975Z,6.78
2022-07-26T15:47:43.424Z,7.07
2022-07-26T15:50:07.374Z,7.70
2022-07-26T15:52:38.512Z,8.75
2022-07-26T15:55:07.306Z,8.95
2022-07-26T15:57:35.432Z,8.05
2022-07-26T16:00:11.236Z,5.82
2022-07-26T16:02:40.983Z,10.43
2022-07-26T16:05:08.918Z,7.32
2022-07-26T16:07:36.173Z,6.55
2022-07-26T16:10:04.351Z,5.68
2022-07-26T16:12:31.620Z,8.52
2022-07-26T16:14:58.950Z,6.32
2022-07-26T16:17:26.391Z,7.80
2022-07-26T16:19:53.627Z,10.10
2022-07-26T16:22:20.835Z,11.43
2022-07-26T16:24:48.511Z,10.90
2022-07-26T16:27:15.649Z,11.30
2022-07-26T16:29:42.796Z,12.40
2022-07-26T16:32:12.061Z,9.55
2022-07-26T16:34:39.414Z,20.98
2022-07-26T16:37:06.777Z,7.53
2022-07-26T16:39:34.080Z,11.48
2022-07-26T16:42:06.811Z,7.60
2022-07-26T16:44:36.377Z,10.57
2022-07-26T16:47:04.604Z,10.20
2022-07-26T16:49:31.883Z,10.45
2022-07-26T16:51:59.295Z,10.93
2022-07-26T16:54:26.861Z,11.82
2022-07-26T16:56:54.112Z,8.80
2022-07-26T16:59:21.553Z,10.10
2022-07-26T17:01:49.028Z,10.10
2022-07-26T17:04:17.369Z,7.35
2022-07-26T17:06:56.648Z,7.90
2022-07-26T17:09:32.065Z,6.53
2022-07-26T17:12:04.265Z,5.93
2022-07-26T17:14:33.844Z,10.23
2022-07-26T17:17:01.148Z,9.25
2022-07-26T17:19:28.464Z,10.55
2022-07-26T17:21:56.052Z,13.20
2022-07-26T17:24:23.132Z,8.15
2022-07-26T17:26:50.365Z,8.75
2022-07-26T17:29:17.883Z,9.30
2022-07-26T17:31:45.128Z,14.07
2022-07-26T17:34:12.296Z,10.60
2022-07-26T17:36:39.789Z,8.88
2022-07-26T17:39:14.968Z,13.32
2022-07-26T17:41:48.994Z,9.27
2022-07-26T17:46:43.487Z,8.85
2022-07-26T17:49:11.781Z,11.90
2022-07-26T17:51:39.454Z,13.38
2022-07-26T17:54:06.725Z,10.13
2022-07-26T17:56:34.678Z,12.95
2022-07-26T17:59:02.199Z,12.43
2022-07-26T18:01:29.486Z,10.38
2022-07-26T18:03:57.000Z,11.63
2022-07-26T18:06:24.121Z,11.68
2022-07-26T18:08:51.326Z,12.60
2022-07-26T18:11:18.932Z,13.13
2022-07-26T18:13:46.099Z,10.38
2022-07-26T18:16:14.251Z,14.27
2022-07-26T18:18:41.795Z,14.27
2022-07-26T18:21:09.119Z,15.45
2022-07-26T18:23:36.232Z,12.18
2022-07-26T18:26:04.014Z,11.70
2022-07-26T18:28:31.468Z,12.70
2022-07-26T18:30:58.663Z,16.83
2022-07-26T18:33:26.515Z,15.10
2022-07-26T18:35:53.837Z,10.73
2022-07-26T18:38:21.014Z,17.27
2022-07-26T18:40:48.475Z,15.13
2022-07-26T18:43:15.640Z,10.55
2022-07-26T18:45:42.758Z,13.20
2022-07-26T18:48:10.597Z,15.70
2022-07-26T18:50:40.030Z,15.80
2022-07-26T18:53:08.502Z,13.40
2022-07-26T18:55:35.930Z,10.88
2022-07-26T18:58:06.685Z,12.82
2022-07-26T19:00:34.366Z,13.43
2022-07-26T19:03:01.785Z,14.10
2022-07-26T19:05:34.439Z,14.52
2022-07-26T19:08:03.960Z,16.08
2022-07-26T19:10:31.155Z,15.13
2022-07-26T19:12:58.745Z,13.48
2022-07-26T19:15:26.168Z,17.35
2022-07-26T19:17:54.351Z,18.75
2022-07-26T19:20:21.669Z,17.05
2022-07-26T19:22:51.090Z,13.38
2022-07-26T19:25:18.795Z,18.02
2022-07-26T19:27:46.053Z,16.15
2022-07-26T19:30:13.739Z,15.98
2022-07-26T19:32:41.060Z,16.40
2022-07-26T19:35:09.179Z,14.50
2022-07-26T19:37:36.773Z,14.00
2022-07-26T19:40:04.443Z,17.90
2022-07-26T19:42:32.642Z,17.00
2022-07-26T19:45:00.252Z,17.52
2022-07-26T19:47:29.809Z,13.18
2022-07-26T19:49:57.524Z,15.60
2022-07-26T19:52:25.088Z,18.45
2022-07-26T19:54:52.391Z,19.65
2022-07-26T19:57:19.910Z,23.13
2022-07-26T19:59:48.122Z,18.40
2022-07-26T20:02:15.866Z,19.35
2022-07-26T20:04:46.019Z,20.35
2022-07-26T20:07:19.426Z,17.38
2022-07-26T20:12:18.122Z,17.05
2022-07-26T20:14:45.589Z,18.42
2022-07-26T20:17:13.254Z,19.15
2022-07-26T20:19:41.473Z,17.13
2022-07-26T20:22:08.914Z,14.38
2022-07-26T20:24:38.217Z,19.25
2022-07-26T20:27:07.103Z,21.23
2022-07-26T20:29:34.609Z,20.65
2022-07-26T20:32:02.031Z,15.75
2022-07-26T20:34:29.722Z,19.45
2022-07-26T20:36:57.294Z,25.40
2022-07-26T20:39:26.296Z,21.05
2022-07-26T20:41:54.050Z,19.48
2022-07-26T20:44:27.657Z,19.92
2022-07-26T20:46:56.046Z,21.50
2022-07-26T20:49:23.350Z,16.45
2022-07-26T20:51:50.588Z,19.92
2022-07-26T20:54:18.107Z,33.25
2022-07-26T20:56:45.519Z,22.65
2022-07-26T20:59:13.177Z,18.88
2022-07-26T21:01:41.156Z,15.93
2022-07-26T21:04:12.101Z,21.85
2022-07-26T21:06:39.472Z,24.65
2022-07-26T21:09:09.900Z,22.70
2022-07-26T21:11:38.910Z,21.48
2022-07-26T21:14:06.362Z,20.23
2022-07-26T21:16:34.028Z,22.63
2022-07-26T21:19:02.190Z,26.70
2022-07-26T21:21:29.552Z,25.55
2022-07-26T21:23:57.040Z,24.02
2022-07-26T21:26:24.381Z,23.00
2022-07-26T21:28:51.697Z,20.33
2022-07-26T21:31:19.097Z,21.80
2022-07-26T21:33:46.295Z,20.60
2022-07-26T21:36:14.461Z,20.00
2022-07-26T21:38:42.433Z,23.83
2022-07-26T21:41:13.410Z,25.52
2022-07-26T21:43:41.879Z,30.52
2022-07-26T21:46:12.726Z,26.73
2022-07-26T21:48:41.160Z,27.05
2022-07-26T21:51:08.418Z,28.90
2022-07-26T21:53:35.907Z,21.33
2022-07-26T21:56:05.604Z,24.98
2022-07-26T21:58:36.589Z,24.48
2022-07-26T22:01:06.528Z,22.80
2022-07-26T22:03:35.884Z,20.05
2022-07-26T22:06:03.563Z,21.40
2022-07-26T22:08:31.861Z,24.33
2022-07-26T22:10:59.081Z,26.52
2022-07-26T22:13:26.461Z,22.13
2022-07-26T22:15:53.914Z,25.88
2022-07-26T22:18:21.357Z,33.90
2022-07-26T22:20:49.775Z,33.50
2022-07-26T22:23:18.869Z,35.90
2022-07-26T22:25:46.126Z,41.88
2022-07-26T22:28:17.958Z,30.23
2022-07-26T22:30:46.600Z,33.65
2022-07-26T22:33:14.030Z,31.65
2022-07-26T22:35:41.247Z,30.08
2022-07-26T22:38:10.469Z,32.72
2022-07-26T22:40:39.220Z,31.35
2022-07-26T22:43:07.811Z,28.88
2022-07-26T22:45:35.539Z,29.45
2022-07-26T22:48:04.542Z,33.45
2022-07-26T22:50:32.490Z,33.33
2022-07-26T22:53:01.175Z,29.40
2022-07-26T22:55:28.818Z,27.25
2022-07-26T22:57:56.094Z,28.77
2022-07-26T23:00:23.591Z,28.88
2022-07-26T23:02:50.974Z,31.00
2022-07-26T23:05:18.375Z,27.73
2022-07-26T23:07:47.807Z,31.95
2022-07-26T23:10:16.718Z,24.55
2022-07-26T23:12:44.382Z,28.17
2022-07-26T23:15:12.308Z,28.58
2022-07-26T23:17:39.542Z,34.78
2022-07-26T23:20:08.490Z,33.55
2022-07-26T23:22:36.444Z,36.13
2022-07-26T23:25:05.017Z,34.30
2022-07-26T23:27:32.275Z,28.83
2022-07-26T23:29:59.571Z,31.42
2022-07-26T23:32:26.806Z,31.00
2022-07-26T23:34:54.038Z,33.75
2022-07-26T23:37:21.556Z,30.45
2022-07-26T23:39:48.699Z,32.22
2022-07-26T23:42:15.992Z,32.53
2022-07-26T23:44:43.245Z,37.47
2022-07-26T23:47:10.620Z,32.92
2022-07-26T23:49:37.880Z,33.30
2022-07-26T23:52:05.401Z,30.27
2022-07-26T23:54:32.706Z,34.08
2022-07-26T23:56:59.838Z,38.25
2022-07-26T23:59:27.270Z,31.23
